Time;durP1;ratioP1;P1;durP2;ratioP2;P2;SDS_P1;SDS_P2;PMS_P1;PMS_P2;Temp;Humidity;BMP_temperature;BMP_pressure;BME280_temperature;BME280_humidity;BME280_pressure;Samples;Min_cycle;Max_cycle;Signal;HPM_P1;HPM_P2
2022/09/16 00:01:27;;;;;;;0.50;0.50;;;;;;;;;;4976795;28;20315;-84
2022/09/16 00:03:58;;;;;;;0.50;0.50;;;;;;;;;;4978196;28;20235;-83
2022/09/16 00:06:27;;;;;;;0.50;0.50;;;;;;;;;;4978410;28;20232;-84
2022/09/16 00:08:55;;;;;;;0.40;0.40;;;;;;;;;;4978146;28;20274;-84
2022/09/16 00:11:24;;;;;;;0.50;0.50;;;;;;;;;;4978416;28;20292;-84
2022/09/16 00:13:53;;;;;;;0.50;0.50;;;;;;;;;;4995056;28;20251;-83
2022/09/16 00:16:22;;;;;;;0.50;0.50;;;;;;;;;;4978073;28;20212;-84
2022/09/16 00:18:54;;;;;;;0.50;0.50;;;;;;;;;;4978241;28;20201;-85
2022/09/16 00:21:24;;;;;;;0.50;0.50;;;;;;;;;;4978604;28;20204;-85
2022/09/16 00:23:52;;;;;;;0.50;0.50;;;;;;;;;;4978119;28;20196;-85
2022/09/16 00:26:21;;;;;;;0.50;0.50;;;;;;;;;;4995405;28;20228;-85
2022/09/16 00:28:50;;;;;;;0.60;0.60;;;;;;;;;;4977510;28;20208;-85
2022/09/16 00:31:18;;;;;;;0.50;0.50;;;;;;;;;;4978439;28;20208;-84
2022/09/16 00:33:47;;;;;;;0.50;0.50;;;;;;;;;;4978240;28;20204;-85
2022/09/16 00:36:16;;;;;;;0.50;0.50;;;;;;;;;;4977907;28;20204;-87
2022/09/16 00:38:46;;;;;;;0.50;0.50;;;;;;;;;;4977986;28;20255;-87
2022/09/16 00:41:18;;;;;;;0.40;0.40;;;;;;;;;;4977510;28;20291;-86
2022/09/16 00:43:47;;;;;;;0.50;0.50;;;;;;;;;;4982719;28;20209;-87
2022/09/16 00:46:16;;;;;;;0.50;0.50;;;;;;;;;;4994682;28;20212;-87
2022/09/16 00:48:45;;;;;;;0.60;0.60;;;;;;;;;;4976617;28;20259;-87
2022/09/16 00:51:15;;;;;;;0.50;0.50;;;;;;;;;;4975840;28;20200;-87
2022/09/16 00:53:48;;;;;;;0.50;0.50;;;;;;;;;;4984613;28;20231;-86
2022/09/16 00:56:18;;;;;;;0.60;0.60;;;;;;;;;;4977623;28;20200;-86
2022/09/16 00:58:48;;;;;;;0.50;0.50;;;;;;;;;;4977046;28;20217;-87
2022/09/16 01:01:16;;;;;;;0.50;0.50;;;;;;;;;;4991019;28;20225;-85
2022/09/16 01:03:46;;;;;;;0.50;0.50;;;;;;;;;;4985266;28;20223;-87
2022/09/16 01:06:15;;;;;;;0.50;0.50;;;;;;;;;;4964509;28;20321;-87
2022/09/16 01:08:46;;;;;;;0.50;0.50;;;;;;;;;;4977424;28;20266;-87
2022/09/16 01:11:15;;;;;;;0.50;0.50;;;;;;;;;;4977271;28;20220;-87
2022/09/16 01:13:45;;;;;;;0.50;0.50;;;;;;;;;;4977377;28;20292;-87
2022/09/16 01:16:18;;;;;;;0.57;0.57;;;;;;;;;;4981323;28;20196;-87
2022/09/16 01:18:49;;;;;;;0.50;0.50;;;;;;;;;;4976833;28;20207;-87
2022/09/16 01:21:22;;;;;;;0.60;0.60;;;;;;;;;;4977454;28;20212;-87
2022/09/16 01:24:06;;;;;;;0.50;0.50;;;;;;;;;;4981375;28;20219;-86
2022/09/16 01:26:45;;;;;;;0.50;0.50;;;;;;;;;;4965529;28;20268;-87
2022/09/16 01:29:27;;;;;;;0.50;0.50;;;;;;;;;;4964928;28;20251;-87
2022/09/16 01:32:02;;;;;;;0.50;0.50;;;;;;;;;;4977360;28;20211;-87
2022/09/16 01:34:36;;;;;;;0.47;0.47;;;;;;;;;;4994123;28;20263;-87
2022/09/16 01:37:07;;;;;;;0.40;0.40;;;;;;;;;;4976885;28;20219;-87
2022/09/16 01:39:39;;;;;;;0.43;0.43;;;;;;;;;;4977462;28;20227;-87
2022/09/16 01:42:16;;;;;;;0.40;0.40;;;;;;;;;;4977112;28;20221;-86
2022/09/16 01:44:47;;;;;;;0.40;0.40;;;;;;;;;;4976905;28;20227;-87
2022/09/16 01:47:21;;;;;;;0.40;0.40;;;;;;;;;;4976789;28;20196;-86
2022/09/16 01:49:57;;;;;;;0.50;0.50;;;;;;;;;;4977062;28;20354;-87
2022/09/16 01:52:29;;;;;;;0.40;0.40;;;;;;;;;;4977097;28;20197;-87
2022/09/16 01:55:00;;;;;;;0.50;0.50;;;;;;;;;;4993614;28;20256;-87
2022/09/16 01:57:32;;;;;;;0.50;0.50;;;;;;;;;;4977145;28;20263;-87
2022/09/16 02:00:03;;;;;;;0.50;0.50;;;;;;;;;;4979233;28;20193;-87
2022/09/16 02:02:36;;;;;;;0.50;0.50;;;;;;;;;;4980509;28;20255;-87
2022/09/16 02:05:07;;;;;;;0.50;0.50;;;;;;;;;;4997777;28;20296;-87
2022/09/16 02:07:37;;;;;;;0.50;0.50;;;;;;;;;;4977993;28;20200;-86
2022/09/16 02:10:07;;;;;;;0.50;0.50;;;;;;;;;;4988381;28;20223;-87
2022/09/16 02:12:38;;;;;;;0.50;0.50;;;;;;;;;;4968173;28;20305;-87
2022/09/16 02:15:09;;;;;;;0.50;0.50;;;;;;;;;;4980755;28;20228;-87
2022/09/16 02:17:42;;;;;;;0.40;0.40;;;;;;;;;;4980617;28;20209;-86
2022/09/16 02:20:14;;;;;;;0.40;0.40;;;;;;;;;;4997495;28;20192;-87
2022/09/16 02:22:44;;;;;;;0.40;0.40;;;;;;;;;;4979925;28;20260;-87
2022/09/16 02:25:15;;;;;;;0.40;0.40;;;;;;;;;;4997146;28;20283;-87
2022/09/16 02:27:44;;;;;;;0.40;0.40;;;;;;;;;;4980314;28;20229;-86
2022/09/16 02:30:16;;;;;;;0.50;0.50;;;;;;;;;;4980161;28;20220;-87
2022/09/16 02:32:47;;;;;;;0.40;0.40;;;;;;;;;;4979862;28;20206;-87
2022/09/16 02:35:17;;;;;;;0.50;0.50;;;;;;;;;;4997144;28;20220;-84
2022/09/16 02:37:48;;;;;;;0.40;0.40;;;;;;;;;;4979706;28;20232;-84
2022/09/16 02:40:18;;;;;;;0.50;0.50;;;;;;;;;;4979631;28;20227;-84
2022/09/16 02:42:48;;;;;;;0.40;0.40;;;;;;;;;;4979388;28;20235;-84
2022/09/16 02:45:19;;;;;;;0.40;0.40;;;;;;;;;;4979613;28;20201;-84
2022/09/16 02:47:54;;;;;;;0.50;0.50;;;;;;;;;;4996777;28;20260;-84
2022/09/16 02:50:26;;;;;;;0.50;0.50;;;;;;;;;;4969042;28;20316;-84
2022/09/16 02:52:57;;;;;;;0.50;0.50;;;;;;;;;;4979601;28;20198;-84
2022/09/16 02:55:29;;;;;;;0.40;0.40;;;;;;;;;;4979493;28;20197;-84
2022/09/16 02:57:57;;;;;;;0.40;0.40;;;;;;;;;;4974144;28;20261;-84
2022/09/16 03:00:29;;;;;;;0.50;0.50;;;;;;;;;;4978284;28;20210;-84
2022/09/16 03:03:00;;;;;;;0.40;0.40;;;;;;;;;;4979316;28;20202;-84
2022/09/16 03:05:28;;;;;;;0.47;0.47;;;;;;;;;;4979074;28;20232;-84
2022/09/16 03:07:57;;;;;;;0.50;0.50;;;;;;;;;;4978991;28;20235;-84
2022/09/16 03:10:28;;;;;;;0.50;0.50;;;;;;;;;;4977575;28;20236;-84
2022/09/16 03:13:02;;;;;;;0.50;0.50;;;;;;;;;;4978675;28;20245;-84
2022/09/16 03:15:51;;;;;;;0.40;0.40;;;;;;;;;;4996338;28;20197;-84
2022/09/16 03:18:40;;;;;;;0.40;0.40;;;;;;;;;;4973368;28;20272;-84
2022/09/16 03:21:10;;;;;;;0.50;0.50;;;;;;;;;;4996069;28;20232;-84
2022/09/16 03:23:44;;;;;;;0.50;0.50;;;;;;;;;;4978972;28;20207;-83
2022/09/16 03:26:22;;;;;;;0.50;0.50;;;;;;;;;;4978890;28;20247;-84
2022/09/16 03:29:01;;;;;;;0.50;0.50;;;;;;;;;;4978776;28;20296;-84
2022/09/16 03:31:31;;;;;;;0.50;0.50;;;;;;;;;;4978946;28;20312;-83
2022/09/16 03:34:06;;;;;;;0.50;0.50;;;;;;;;;;4978700;28;20215;-84
2022/09/16 03:36:36;;;;;;;0.50;0.50;;;;;;;;;;4995936;28;20199;-84
2022/09/16 03:39:05;;;;;;;0.40;0.40;;;;;;;;;;4978414;28;20210;-84
2022/09/16 03:41:34;;;;;;;0.50;0.50;;;;;;;;;;4978805;28;20197;-84
2022/09/16 03:44:03;;;;;;;0.40;0.40;;;;;;;;;;4978650;28;20266;-84
2022/09/16 03:46:32;;;;;;;0.50;0.50;;;;;;;;;;4978188;28;20200;-84
2022/09/16 03:49:00;;;;;;;0.50;0.50;;;;;;;;;;4978492;28;20251;-84
2022/09/16 03:51:30;;;;;;;0.50;0.50;;;;;;;;;;4995578;28;20252;-84
2022/09/16 03:53:58;;;;;;;0.50;0.50;;;;;;;;;;4978517;28;20196;-84
2022/09/16 03:56:26;;;;;;;0.50;0.50;;;;;;;;;;4978211;28;20251;-85
2022/09/16 03:58:55;;;;;;;0.50;0.50;;;;;;;;;;4995500;28;20231;-85
2022/09/16 04:01:26;;;;;;;0.40;0.40;;;;;;;;;;4978035;28;20217;-85
2022/09/16 04:03:55;;;;;;;0.40;0.40;;;;;;;;;;4978179;28;20220;-87
2022/09/16 04:06:25;;;;;;;0.50;0.50;;;;;;;;;;4994780;28;20224;-86
2022/09/16 04:08:59;;;;;;;0.50;0.50;;;;;;;;;;4978558;28;20204;-87
2022/09/16 04:11:30;;;;;;;0.50;0.50;;;;;;;;;;4995386;28;20207;-87
2022/09/16 04:14:00;;;;;;;0.40;0.40;;;;;;;;;;4995045;28;20263;-86
2022/09/16 04:16:29;;;;;;;0.50;0.50;;;;;;;;;;4995398;28;20254;-87
2022/09/16 04:18:57;;;;;;;0.50;0.50;;;;;;;;;;4978094;28;20285;-87
2022/09/16 04:21:26;;;;;;;0.50;0.50;;;;;;;;;;4982859;28;20205;-87
2022/09/16 04:23:56;;;;;;;0.40;0.40;;;;;;;;;;4983186;28;20209;-87
2022/09/16 04:26:24;;;;;;;0.40;0.40;;;;;;;;;;4978086;28;20204;-87
2022/09/16 04:28:54;;;;;;;0.43;0.43;;;;;;;;;;4978371;28;20211;-87
2022/09/16 04:31:23;;;;;;;0.47;0.47;;;;;;;;;;4977860;28;20208;-87
2022/09/16 04:33:51;;;;;;;0.40;0.40;;;;;;;;;;4983098;28;20217;-85
2022/09/16 04:36:20;;;;;;;0.50;0.50;;;;;;;;;;4994512;28;20197;-85
2022/09/16 04:38:49;;;;;;;0.50;0.50;;;;;;;;;;4976718;28;20196;-85
2022/09/16 04:41:20;;;;;;;0.40;0.40;;;;;;;;;;4977341;28;20250;-85
2022/09/16 04:43:52;;;;;;;0.47;0.47;;;;;;;;;;4977143;28;20211;-85
2022/09/16 04:46:20;;;;;;;0.50;0.50;;;;;;;;;;4977288;28;20227;-85
2022/09/16 04:48:49;;;;;;;0.50;0.50;;;;;;;;;;4977186;28;20231;-85
2022/09/16 04:51:18;;;;;;;0.50;0.50;;;;;;;;;;4966623;28;20316;-84
2022/09/16 04:53:47;;;;;;;0.50;0.50;;;;;;;;;;4993058;28;20239;-85
2022/09/16 04:56:16;;;;;;;0.50;0.50;;;;;;;;;;4977098;28;20296;-84
2022/09/16 04:58:47;;;;;;;0.50;0.50;;;;;;;;;;4977365;28;20228;-83
2022/09/16 05:01:16;;;;;;;0.50;0.50;;;;;;;;;;4976989;28;20287;-84
2022/09/16 05:03:46;;;;;;;0.40;0.40;;;;;;;;;;4994198;28;20299;-84
2022/09/16 05:06:15;;;;;;;0.50;0.50;;;;;;;;;;4976873;28;20200;-84
2022/09/16 05:08:48;;;;;;;0.50;0.50;;;;;;;;;;4982749;28;20207;-84
2022/09/16 05:11:17;;;;;;;0.50;0.50;;;;;;;;;;4976757;28;20204;-84
2022/09/16 05:13:47;;;;;;;0.50;0.50;;;;;;;;;;4976787;28;20331;-84
2022/09/16 05:16:16;;;;;;;0.50;0.50;;;;;;;;;;4994017;28;20193;-84
2022/09/16 05:18:46;;;;;;;0.60;0.60;;;;;;;;;;4976369;28;20292;-83
2022/09/16 05:21:15;;;;;;;0.50;0.50;;;;;;;;;;4976441;28;20204;-82
2022/09/16 05:23:44;;;;;;;0.50;0.50;;;;;;;;;;4976285;28;20268;-83
2022/09/16 05:26:15;;;;;;;0.50;0.50;;;;;;;;;;4976822;28;20250;-83
2022/09/16 05:28:43;;;;;;;0.60;0.60;;;;;;;;;;4976628;28;20212;-84
2022/09/16 05:31:13;;;;;;;0.50;0.50;;;;;;;;;;4993435;28;20287;-83
2022/09/16 05:33:43;;;;;;;0.60;0.60;;;;;;;;;;4994362;28;20211;-83
2022/09/16 05:36:12;;;;;;;0.50;0.50;;;;;;;;;;4997920;28;20262;-83
2022/09/16 05:38:41;;;;;;;0.50;0.50;;;;;;;;;;4968548;28;20212;-83
2022/09/16 05:41:30;;;;;;;0.50;0.50;;;;;;;;;;4980088;28;20200;-83
2022/09/16 05:43:59;;;;;;;0.50;0.50;;;;;;;;;;4980846;28;20196;-84
2022/09/16 05:46:29;;;;;;;0.50;0.50;;;;;;;;;;4980430;28;20215;-84
2022/09/16 05:48:58;;;;;;;0.50;0.50;;;;;;;;;;4980309;28;20196;-83
2022/09/16 05:51:26;;;;;;;0.50;0.50;;;;;;;;;;4980250;28;20236;-84
2022/09/16 05:53:55;;;;;;;0.50;0.50;;;;;;;;;;4997054;28;20208;-84
2022/09/16 05:56:25;;;;;;;0.50;0.50;;;;;;;;;;4980169;28;20196;-84
2022/09/16 05:58:54;;;;;;;0.50;0.50;;;;;;;;;;4960937;28;20209;-83
2022/09/16 06:01:25;;;;;;;0.50;0.50;;;;;;;;;;4991796;28;20286;-84
2022/09/16 06:03:55;;;;;;;0.50;0.50;;;;;;;;;;4980324;28;20200;-83
2022/09/16 06:06:24;;;;;;;0.50;0.50;;;;;;;;;;4979815;28;20247;-84
2022/09/16 06:08:54;;;;;;;0.50;0.50;;;;;;;;;;4980168;28;20228;-83
2022/09/16 06:11:22;;;;;;;0.50;0.50;;;;;;;;;;4979841;28;20200;-83
2022/09/16 06:13:55;;;;;;;0.53;0.53;;;;;;;;;;4997334;28;20299;-83
2022/09/16 06:16:25;;;;;;;0.50;0.50;;;;;;;;;;4979386;28;20228;-83
2022/09/16 06:18:54;;;;;;;0.50;0.50;;;;;;;;;;4997315;28;20268;-83
2022/09/16 06:21:24;;;;;;;0.50;0.50;;;;;;;;;;4966730;28;20212;-84
2022/09/16 06:23:52;;;;;;;0.60;0.60;;;;;;;;;;4980051;28;20196;-84
2022/09/16 06:26:22;;;;;;;0.50;0.50;;;;;;;;;;4996667;28;20205;-84
2022/09/16 06:28:51;;;;;;;0.50;0.50;;;;;;;;;;4979927;28;20299;-84
2022/09/16 06:31:20;;;;;;;0.50;0.50;;;;;;;;;;4984441;28;20284;-84
2022/09/16 06:33:50;;;;;;;0.50;0.50;;;;;;;;;;4996414;28;20208;-84
2022/09/16 06:36:20;;;;;;;0.50;0.50;;;;;;;;;;4968112;28;20286;-84
2022/09/16 06:38:50;;;;;;;0.50;0.50;;;;;;;;;;4980132;28;20250;-85
2022/09/16 06:41:19;;;;;;;0.43;0.43;;;;;;;;;;4979868;28;20201;-85
2022/09/16 06:43:50;;;;;;;0.50;0.50;;;;;;;;;;4966911;28;20216;-85
2022/09/16 06:46:27;;;;;;;0.50;0.50;;;;;;;;;;4991444;28;20193;-85
2022/09/16 06:48:56;;;;;;;0.50;0.50;;;;;;;;;;4973126;28;20372;-85
2022/09/16 06:51:47;;;;;;;0.40;0.40;;;;;;;;;;4979356;28;20208;-85
2022/09/16 06:54:18;;;;;;;0.50;0.50;;;;;;;;;;4964762;28;20202;-85
2022/09/16 06:56:46;;;;;;;0.40;0.40;;;;;;;;;;4965772;28;20220;-84
2022/09/16 06:59:19;;;;;;;0.50;0.50;;;;;;;;;;4969468;28;20205;-82
2022/09/16 07:01:49;;;;;;;0.60;0.60;;;;;;;;;;4974975;28;20228;-83
2022/09/16 07:04:24;;;;;;;0.50;0.50;;;;;;;;;;4968648;28;20206;-83
2022/09/16 07:06:57;;;;;;;0.50;0.50;;;;;;;;;;4971488;28;20262;-84
2022/09/16 07:13:38;;;;;;;0.50;0.50;;;;;;;;;;4895010;28;20237;-84
2022/09/16 07:16:23;;;;;;;0.50;0.50;;;;;;;;;;4970220;28;20204;-84
2022/09/16 07:18:55;;;;;;;0.50;0.50;;;;;;;;;;4963900;28;20207;-82
2022/09/16 07:21:28;;;;;;;0.50;0.50;;;;;;;;;;4967295;28;20264;-82
2022/09/16 07:23:58;;;;;;;0.50;0.50;;;;;;;;;;4962391;28;20212;-82
2022/09/16 07:26:28;;;;;;;0.50;0.50;;;;;;;;;;4983860;28;20205;-81
2022/09/16 07:28:59;;;;;;;0.50;0.50;;;;;;;;;;4980737;28;20208;-81
2022/09/16 07:31:30;;;;;;;0.50;0.50;;;;;;;;;;4980901;28;20204;-83
2022/09/16 07:34:00;;;;;;;0.50;0.50;;;;;;;;;;4970701;28;20224;-81
2022/09/16 07:36:34;;;;;;;0.50;0.50;;;;;;;;;;4963397;28;20231;-84
2022/09/16 07:39:02;;;;;;;0.50;0.50;;;;;;;;;;4960712;28;20205;-83
2022/09/16 07:41:34;;;;;;;0.40;0.40;;;;;;;;;;4962168;28;20236;-83
2022/09/16 07:44:09;;;;;;;0.50;0.50;;;;;;;;;;4966967;28;20220;-85
2022/09/16 07:50:35;;;;;;;0.50;0.50;;;;;;;;;;4902546;29;20341;-85
2022/09/16 08:00:08;;;;;;;0.50;0.50;;;;;;;;;;4932788;28;20216;-85
2022/09/16 08:02:42;;;;;;;0.50;0.50;;;;;;;;;;4984169;28;20292;-86
2022/09/16 08:05:44;;;;;;;;;;;;;;;;;;;;;
2022/09/16 08:08:13;;;;;;;0.50;0.50;;;;;;;;;;4975039;28;20229;-85
2022/09/16 08:10:57;;;;;;;0.50;0.50;;;;;;;;;;4962830;28;20201;-82
2022/09/16 08:13:37;;;;;;;0.50;0.50;;;;;;;;;;4957205;28;20240;-82
2022/09/16 08:16:15;;;;;;;0.50;0.50;;;;;;;;;;4965050;28;20201;-82
2022/09/16 08:18:56;;;;;;;0.50;0.50;;;;;;;;;;4965237;28;20205;-82
2022/09/16 08:21:30;;;;;;;0.50;0.50;;;;;;;;;;4963838;28;20220;-82
2022/09/16 08:24:15;;;;;;;0.50;0.50;;;;;;;;;;4958960;28;20204;-83
2022/09/16 08:26:52;;;;;;;0.50;0.50;;;;;;;;;;4978778;28;20243;-83
2022/09/16 08:29:28;;;;;;;0.40;0.40;;;;;;;;;;4980854;28;20201;-84
2022/09/16 08:32:07;;;;;;;0.50;0.50;;;;;;;;;;4977375;28;20205;-83
2022/09/16 08:34:55;;;;;;;0.50;0.50;;;;;;;;;;4956969;28;20220;-84
2022/09/16 08:37:30;;;;;;;0.40;0.40;;;;;;;;;;4960702;28;20211;-84
2022/09/16 08:40:37;;;;;;;0.50;0.50;;;;;;;;;;4958338;28;20209;-84
2022/09/16 08:43:34;;;;;;;0.60;0.60;;;;;;;;;;4957829;28;20209;-85
2022/09/16 08:46:18;;;;;;;0.50;0.50;;;;;;;;;;4968612;28;20224;-84
2022/09/16 08:49:17;;;;;;;0.40;0.40;;;;;;;;;;4960442;28;20209;-86
2022/09/16 08:55:25;;;;;;;0.40;0.40;;;;;;;;;;4958902;28;20284;-84
2022/09/16 08:58:07;;;;;;;0.40;0.40;;;;;;;;;;4959028;28;20280;-84
2022/09/16 09:00:38;;;;;;;0.40;0.40;;;;;;;;;;4960812;28;20212;-85
2022/09/16 09:03:19;;;;;;;0.40;0.40;;;;;;;;;;4960094;28;20207;-83
2022/09/16 09:06:02;;;;;;;0.43;0.43;;;;;;;;;;4960297;28;20292;-84
2022/09/16 09:08:57;;;;;;;0.40;0.40;;;;;;;;;;4976848;28;20236;-85
2022/09/16 09:11:44;;;;;;;0.40;0.40;;;;;;;;;;4965759;28;20299;-85
2022/09/16 09:14:46;;;;;;;0.40;0.40;;;;;;;;;;4962840;28;20229;-84
2022/09/16 09:17:30;;;;;;;;;;;;;;;;;;;;;
2022/09/16 09:27:47;;;;;;;0.40;0.40;;;;;;;;;;4925682;29;20218;-86
2022/09/16 09:30:57;;;;;;;0.40;0.40;;;;;;;;;;4927730;29;20293;-86
2022/09/16 09:34:26;;;;;;;0.40;0.40;;;;;;;;;;4926796;29;20233;-85
2022/09/16 09:37:46;;;;;;;0.40;0.40;;;;;;;;;;4902740;29;20223;-85
2022/09/16 09:44:12;;;;;;;0.40;0.40;;;;;;;;;;4910707;29;20205;-86
2022/09/16 09:48:14;;;;;;;;;;;;;;;;;;;;;
2022/09/16 09:55:23;;;;;;;0.40;0.40;;;;;;;;;;4894142;29;20224;-87
2022/09/16 10:16:25;;;;;;;0.40;0.40;;;;;;;;;;4942004;28;20348;-84
2022/09/16 10:19:33;;;;;;;0.40;0.40;;;;;;;;;;4942087;28;20216;-85
2022/09/16 10:22:43;;;;;;;0.40;0.40;;;;;;;;;;4939802;28;20208;-85
2022/09/16 10:25:25;;;;;;;0.40;0.40;;;;;;;;;;4940969;28;20297;-84
2022/09/16 10:31:01;;;;;;;0.50;0.50;;;;;;;;;;4952337;28;20201;-84
2022/09/16 10:33:37;;;;;;;0.50;0.50;;;;;;;;;;4945768;28;20340;-83
2022/09/16 10:36:12;;;;;;;0.50;0.50;;;;;;;;;;4964081;28;20213;-83
2022/09/16 10:39:07;;;;;;;0.50;0.50;;;;;;;;;;4934979;28;20206;-84
2022/09/16 10:41:46;;;;;;;0.40;0.40;;;;;;;;;;4943236;28;20323;-84
2022/09/16 10:44:26;;;;;;;0.50;0.50;;;;;;;;;;4944935;28;20201;-84
2022/09/16 10:47:17;;;;;;;0.40;0.40;;;;;;;;;;4966250;28;20251;-85
2022/09/16 10:50:00;;;;;;;0.40;0.40;;;;;;;;;;4969351;28;20227;-85
2022/09/16 10:52:44;;;;;;;0.47;0.47;;;;;;;;;;4967200;28;20220;-85
2022/09/16 10:58:29;;;;;;;0.50;0.50;;;;;;;;;;4965361;28;20219;-85
2022/09/16 11:04:56;;;;;;;0.50;0.50;;;;;;;;;;4945265;28;20288;-84
2022/09/16 11:11:23;;;;;;;0.40;0.40;;;;;;;;;;4951256;28;20203;-87
2022/09/16 11:18:14;;;;;;;0.40;0.40;;;;;;;;;;4944075;28;20216;-87
2022/09/16 11:25:11;;;;;;;0.40;0.40;;;;;;;;;;4948004;28;20204;-86
2022/09/16 11:28:27;;;;;;;0.40;0.40;;;;;;;;;;4871151;29;20222;-86
2022/09/16 11:31:47;;;;;;;0.30;0.30;;;;;;;;;;4867460;29;20212;-87
2022/09/16 11:34:45;;;;;;;0.30;0.30;;;;;;;;;;4943380;28;20303;-86
2022/09/16 11:40:59;;;;;;;0.30;0.30;;;;;;;;;;4949460;28;20207;-85
2022/09/16 11:43:51;;;;;;;0.40;0.40;;;;;;;;;;4949802;28;20291;-84
2022/09/16 11:46:34;;;;;;;0.30;0.30;;;;;;;;;;4952548;28;20260;-85
2022/09/16 11:49:29;;;;;;;0.30;0.30;;;;;;;;;;4946406;28;20204;-85
2022/09/16 11:52:07;;;;;;;0.30;0.30;;;;;;;;;;4943856;28;20205;-85
2022/09/16 11:54:50;;;;;;;0.40;0.40;;;;;;;;;;4949277;28;20219;-84
2022/09/16 11:57:28;;;;;;;0.33;0.33;;;;;;;;;;4942309;28;20231;-85
2022/09/16 12:00:04;;;;;;;0.37;0.37;;;;;;;;;;4949014;28;20219;-84
2022/09/16 12:02:40;;;;;;;0.40;0.40;;;;;;;;;;4944086;28;20236;-84
2022/09/16 12:05:17;;;;;;;0.30;0.30;;;;;;;;;;4941440;28;20205;-85
2022/09/16 12:07:49;;;;;;;0.30;0.30;;;;;;;;;;4944836;28;20220;-86
2022/09/16 12:10:22;;;;;;;0.30;0.30;;;;;;;;;;4941794;28;20220;-84
2022/09/16 12:12:55;;;;;;;0.30;0.30;;;;;;;;;;4954595;28;20240;-85
2022/09/16 12:15:32;;;;;;;0.40;0.40;;;;;;;;;;4965643;28;20312;-85
2022/09/16 12:18:14;;;;;;;0.30;0.30;;;;;;;;;;4970730;28;20238;-85
2022/09/16 12:21:09;;;;;;;0.40;0.40;;;;;;;;;;4963325;28;20208;-85
2022/09/16 12:23:43;;;;;;;0.40;0.40;;;;;;;;;;4968472;28;20207;-85
2022/09/16 12:26:15;;;;;;;0.30;0.30;;;;;;;;;;4968852;28;20207;-85
2022/09/16 12:29:07;;;;;;;0.30;0.30;;;;;;;;;;4971061;28;20207;-85
2022/09/16 12:31:52;;;;;;;0.30;0.30;;;;;;;;;;4963337;28;20296;-85
2022/09/16 12:34:25;;;;;;;0.30;0.30;;;;;;;;;;4954771;28;20214;-86
2022/09/16 12:37:04;;;;;;;0.30;0.30;;;;;;;;;;4960886;28;20203;-85
2022/09/16 12:39:37;;;;;;;0.30;0.30;;;;;;;;;;4960098;28;20229;-85
2022/09/16 12:42:37;;;;;;;0.40;0.40;;;;;;;;;;4961160;28;20197;-85
2022/09/16 12:45:27;;;;;;;0.30;0.30;;;;;;;;;;4890527;29;20206;-85
2022/09/16 12:51:45;;;;;;;0.30;0.30;;;;;;;;;;4974203;28;20207;-86
2022/09/16 12:54:32;;;;;;;0.40;0.40;;;;;;;;;;4975096;28;20208;-85
2022/09/16 12:57:34;;;;;;;0.30;0.30;;;;;;;;;;4963872;28;20200;-85
2022/09/16 13:00:07;;;;;;;0.30;0.30;;;;;;;;;;4962692;28;20199;-84
2022/09/16 13:02:38;;;;;;;0.30;0.30;;;;;;;;;;4964427;28;20231;-84
2022/09/16 13:05:14;;;;;;;0.30;0.30;;;;;;;;;;4959777;28;20201;-85
2022/09/16 13:07:51;;;;;;;0.30;0.30;;;;;;;;;;4957477;28;20299;-85
2022/09/16 13:10:32;;;;;;;0.30;0.30;;;;;;;;;;4958359;28;20348;-85
2022/09/16 13:13:30;;;;;;;0.30;0.30;;;;;;;;;;4963062;28;20262;-85
2022/09/16 13:16:05;;;;;;;0.30;0.30;;;;;;;;;;4966502;28;20240;-84
2022/09/16 13:18:42;;;;;;;0.37;0.37;;;;;;;;;;4967403;28;20205;-84
2022/09/16 13:21:21;;;;;;;0.30;0.30;;;;;;;;;;4980501;28;20206;-85
2022/09/16 13:24:01;;;;;;;0.30;0.30;;;;;;;;;;4975112;28;20208;-86
2022/09/16 13:26:43;;;;;;;0.30;0.30;;;;;;;;;;4964794;28;20253;-85
2022/09/16 13:29:42;;;;;;;0.40;0.40;;;;;;;;;;4967071;28;20201;-86
2022/09/16 13:32:42;;;;;;;0.30;0.30;;;;;;;;;;4966086;28;20413;-86
2022/09/16 13:35:29;;;;;;;0.30;0.30;;;;;;;;;;4958633;28;20229;-87
2022/09/16 13:38:30;;;;;;;0.40;0.40;;;;;;;;;;4975091;28;20212;-86
2022/09/16 13:41:13;;;;;;;0.40;0.40;;;;;;;;;;4964007;28;20219;-86
2022/09/16 13:44:14;;;;;;;0.30;0.30;;;;;;;;;;4980153;28;20246;-85
2022/09/16 13:46:47;;;;;;;0.40;0.40;;;;;;;;;;4940561;28;20199;-85
2022/09/16 13:49:59;;;;;;;0.40;0.40;;;;;;;;;;4961531;28;20212;-86
2022/09/16 13:52:41;;;;;;;0.40;0.40;;;;;;;;;;4963106;28;20214;-86
2022/09/16 13:55:20;;;;;;;0.30;0.30;;;;;;;;;;4961770;28;20265;-86
2022/09/16 13:58:08;;;;;;;0.40;0.40;;;;;;;;;;4961143;28;20200;-87
2022/09/16 14:01:00;;;;;;;0.40;0.40;;;;;;;;;;4964082;28;20235;-86
2022/09/16 14:04:03;;;;;;;0.30;0.30;;;;;;;;;;4961470;28;20221;-86
2022/09/16 14:06:46;;;;;;;0.30;0.30;;;;;;;;;;4970244;28;20295;-86
2022/09/16 14:09:32;;;;;;;0.40;0.40;;;;;;;;;;4976430;28;20204;-89
2022/09/16 14:12:40;;;;;;;;;;;;;;;;;;;;;
2022/09/16 14:15:19;;;;;;;0.40;0.40;;;;;;;;;;4988203;28;20214;-90
2022/09/16 14:17:58;;;;;;;0.33;0.33;;;;;;;;;;4967751;28;20201;-87
2022/09/16 14:20:34;;;;;;;0.33;0.33;;;;;;;;;;4968080;28;20207;-85
2022/09/16 14:23:25;;;;;;;0.30;0.30;;;;;;;;;;4966391;28;20203;-85
2022/09/16 14:26:09;;;;;;;0.40;0.40;;;;;;;;;;4964908;28;20200;-89
2022/09/16 14:28:44;;;;;;;0.40;0.40;;;;;;;;;;4979525;28;20208;-84
2022/09/16 14:31:18;;;;;;;0.40;0.40;;;;;;;;;;4966475;28;20228;-84
2022/09/16 14:33:52;;;;;;;0.43;0.43;;;;;;;;;;4979506;28;20208;-84
2022/09/16 14:36:31;;;;;;;0.40;0.40;;;;;;;;;;4967658;28;20220;-83
2022/09/16 14:39:03;;;;;;;0.40;0.40;;;;;;;;;;4965335;28;20208;-85
2022/09/16 14:41:43;;;;;;;0.40;0.40;;;;;;;;;;4973014;28;20218;-84
2022/09/16 14:44:17;;;;;;;0.40;0.40;;;;;;;;;;4982471;28;20205;-84
2022/09/16 14:46:48;;;;;;;0.40;0.40;;;;;;;;;;4964668;28;20208;-84
2022/09/16 14:49:22;;;;;;;0.40;0.40;;;;;;;;;;4969778;28;20294;-83
2022/09/16 14:52:00;;;;;;;0.40;0.40;;;;;;;;;;4982067;28;20213;-87
2022/09/16 14:54:50;;;;;;;0.30;0.30;;;;;;;;;;4969361;28;20205;-84
2022/09/16 14:57:27;;;;;;;0.40;0.40;;;;;;;;;;4970234;28;20222;-85
2022/09/16 15:00:02;;;;;;;0.40;0.40;;;;;;;;;;4964842;28;20251;-85
2022/09/16 15:02:47;;;;;;;0.40;0.40;;;;;;;;;;4963553;28;20219;-85
2022/09/16 15:05:28;;;;;;;0.30;0.30;;;;;;;;;;4971588;28;20226;-86
2022/09/16 15:08:05;;;;;;;0.50;0.50;;;;;;;;;;4980300;28;20303;-84
2022/09/16 15:10:46;;;;;;;0.40;0.40;;;;;;;;;;4965930;28;20215;-84
2022/09/16 15:13:28;;;;;;;0.30;0.30;;;;;;;;;;4963069;28;20242;-84
2022/09/16 15:16:02;;;;;;;0.40;0.40;;;;;;;;;;4963768;28;20211;-84
2022/09/16 15:18:35;;;;;;;0.40;0.40;;;;;;;;;;4971931;28;20204;-83
2022/09/16 15:21:06;;;;;;;0.40;0.40;;;;;;;;;;4968613;28;20202;-83
2022/09/16 15:23:40;;;;;;;0.40;0.40;;;;;;;;;;4968210;28;20226;-83
2022/09/16 15:26:17;;;;;;;0.40;0.40;;;;;;;;;;4974827;28;20203;-84
2022/09/16 15:28:54;;;;;;;0.40;0.40;;;;;;;;;;4978766;28;20278;-84
2022/09/16 15:31:30;;;;;;;0.40;0.40;;;;;;;;;;4978808;28;20206;-83
2022/09/16 15:34:00;;;;;;;0.40;0.40;;;;;;;;;;4978198;28;20261;-83
2022/09/16 15:36:33;;;;;;;0.37;0.37;;;;;;;;;;4978437;28;20220;-84
2022/09/16 15:39:01;;;;;;;0.40;0.40;;;;;;;;;;4978756;28;20195;-86
2022/09/16 15:41:31;;;;;;;0.40;0.40;;;;;;;;;;4978317;28;20206;-83
2022/09/16 15:44:00;;;;;;;0.40;0.40;;;;;;;;;;4978112;28;20289;-83
2022/09/16 15:46:29;;;;;;;0.40;0.40;;;;;;;;;;4977995;28;20222;-84
2022/09/16 15:48:59;;;;;;;0.40;0.40;;;;;;;;;;4978354;28;20252;-84
2022/09/16 15:51:31;;;;;;;0.40;0.40;;;;;;;;;;4978169;28;20206;-83
2022/09/16 15:54:03;;;;;;;0.40;0.40;;;;;;;;;;4966596;28;20222;-83
2022/09/16 15:56:34;;;;;;;0.40;0.40;;;;;;;;;;4977904;28;20211;-83
2022/09/16 15:59:05;;;;;;;0.40;0.40;;;;;;;;;;4978381;28;20207;-84
2022/09/16 16:01:39;;;;;;;0.40;0.40;;;;;;;;;;4978195;28;20230;-84
2022/09/16 16:04:09;;;;;;;0.40;0.40;;;;;;;;;;4995445;28;20230;-85
2022/09/16 16:06:49;;;;;;;0.40;0.40;;;;;;;;;;4977633;28;20209;-86
2022/09/16 16:09:36;;;;;;;0.40;0.40;;;;;;;;;;4977971;28;20280;-86
2022/09/16 16:12:07;;;;;;;0.40;0.40;;;;;;;;;;4984657;28;20216;-86
2022/09/16 16:14:36;;;;;;;0.40;0.40;;;;;;;;;;4977917;28;20232;-86
2022/09/16 16:17:06;;;;;;;0.40;0.40;;;;;;;;;;4995107;28;20222;-86
2022/09/16 16:19:42;;;;;;;0.30;0.30;;;;;;;;;;4977397;28;20200;-86
2022/09/16 16:22:11;;;;;;;0.40;0.40;;;;;;;;;;4978241;28;20202;-86
2022/09/16 16:24:39;;;;;;;0.40;0.40;;;;;;;;;;5007896;28;20208;-86
2022/09/16 16:27:09;;;;;;;0.40;0.40;;;;;;;;;;4978048;28;20216;-85
2022/09/16 16:29:38;;;;;;;0.47;0.47;;;;;;;;;;4977756;28;20213;-85
2022/09/16 16:32:07;;;;;;;0.40;0.40;;;;;;;;;;4977695;28;20199;-84
2022/09/16 16:34:37;;;;;;;0.40;0.40;;;;;;;;;;4981884;28;20207;-84
2022/09/16 16:37:06;;;;;;;0.40;0.40;;;;;;;;;;4977321;28;20255;-84
2022/09/16 16:39:34;;;;;;;0.30;0.30;;;;;;;;;;4994688;28;20225;-83
2022/09/16 16:42:04;;;;;;;0.40;0.40;;;;;;;;;;4977417;28;20202;-83
2022/09/16 16:44:35;;;;;;;0.40;0.40;;;;;;;;;;4977206;28;20233;-84
2022/09/16 16:47:03;;;;;;;0.40;0.40;;;;;;;;;;4994452;28;20215;-84
2022/09/16 16:49:32;;;;;;;0.50;0.50;;;;;;;;;;4994644;28;20214;-84
2022/09/16 16:52:01;;;;;;;0.40;0.40;;;;;;;;;;4977577;28;20205;-84
2022/09/16 16:54:30;;;;;;;0.40;0.40;;;;;;;;;;4977188;28;20258;-83
2022/09/16 16:56:58;;;;;;;0.40;0.40;;;;;;;;;;4976859;28;20215;-83
2022/09/16 16:59:27;;;;;;;0.40;0.40;;;;;;;;;;4966805;28;20212;-83
2022/09/16 17:01:58;;;;;;;0.40;0.40;;;;;;;;;;4992511;28;20234;-83